createdAt,value
2022-08-25T00:00:35.651Z,9.23
2022-08-25T00:05:38.373Z,8.87
2022-08-25T00:10:42.484Z,8.80
2022-08-25T00:15:46.671Z,7.83
2022-08-25T00:20:49.684Z,7.97
2022-08-25T00:25:52.318Z,8.07
2022-08-25T00:30:55.232Z,8.17
2022-08-25T00:35:58.181Z,8.10
2022-08-25T00:41:06.408Z,8.60
2022-08-25T00:46:10.324Z,7.77
2022-08-25T00:51:16.911Z,7.83
2022-08-25T00:56:20.681Z,7.27
2022-08-25T01:01:24.634Z,7.60
2022-08-25T01:06:31.075Z,7.63
2022-08-25T01:11:35.151Z,7.70
2022-08-25T01:16:38.606Z,7.80
2022-08-25T01:21:44.983Z,8.00
2022-08-25T01:26:47.703Z,8.10
2022-08-25T01:31:57.731Z,8.30
2022-08-25T01:37:00.998Z,7.50
2022-08-25T01:42:04.580Z,7.83
2022-08-25T01:47:08.103Z,8.97
2022-08-25T01:52:16.308Z,10.03
2022-08-25T01:57:18.825Z,10.60
2022-08-25T02:02:21.797Z,10.67
2022-08-25T02:07:24.448Z,11.37
2022-08-25T02:12:26.865Z,12.03
2022-08-25T02:17:30.086Z,12.77
2022-08-25T02:22:32.546Z,13.33
2022-08-25T02:27:35.546Z,13.53
2022-08-25T02:32:38.180Z,13.43
2022-08-25T02:37:40.692Z,15.30
2022-08-25T02:42:43.467Z,15.30
2022-08-25T02:47:46.868Z,16.57
2022-08-25T02:52:50.769Z,16.10
2022-08-25T02:57:53.195Z,17.50
2022-08-25T03:02:55.599Z,17.47
2022-08-25T03:07:58.186Z,17.83
2022-08-25T03:13:00.899Z,18.27
2022-08-25T03:18:05.388Z,17.17
2022-08-25T03:23:11.184Z,17.90
2022-08-25T03:28:14.700Z,17.23
2022-08-25T03:33:17.490Z,17.63
2022-08-25T03:38:19.933Z,17.60
2022-08-25T03:43:23.027Z,16.87
2022-08-25T03:48:25.451Z,16.57
2022-08-25T03:53:27.971Z,17.00
2022-08-25T03:58:30.444Z,16.40
2022-08-25T04:03:32.903Z,17.50
2022-08-25T04:08:36.017Z,18.40
2022-08-25T04:13:38.749Z,19.20
2022-08-25T04:18:42.489Z,17.43
2022-08-25T04:23:47.981Z,16.73
2022-08-25T04:28:50.583Z,16.70
2022-08-25T04:33:53.480Z,15.80
2022-08-25T04:38:55.931Z,16.23
2022-08-25T04:44:00.629Z,16.50
2022-08-25T04:49:03.941Z,16.57
2022-08-25T04:54:12.176Z,17.73
2022-08-25T04:59:16.385Z,17.30
2022-08-25T05:04:28.050Z,17.97
2022-08-25T05:09:32.399Z,17.03
2022-08-25T05:14:35.353Z,16.63
2022-08-25T05:19:38.049Z,15.80
2022-08-25T05:24:41.006Z,16.50
2022-08-25T05:29:43.429Z,18.43
2022-08-25T05:34:46.091Z,17.40
2022-08-25T05:39:48.569Z,17.43
2022-08-25T05:44:51.237Z,17.53
2022-08-25T05:49:53.660Z,17.07
2022-08-25T05:54:56.190Z,16.87
2022-08-25T05:59:58.611Z,16.20
2022-08-25T06:05:01.045Z,15.70
2022-08-25T06:10:06.276Z,15.23
2022-08-25T06:15:09.451Z,13.93
2022-08-25T06:20:17.743Z,12.40
2022-08-25T06:25:23.957Z,12.00
2022-08-25T06:30:28.867Z,11.73
2022-08-25T06:35:32.084Z,10.97
2022-08-25T06:40:38.072Z,9.97
2022-08-25T06:45:40.504Z,10.20
2022-08-25T06:50:45.984Z,10.73
2022-08-25T06:55:56.902Z,10.87
2022-08-25T07:01:09.034Z,10.00
2022-08-25T07:06:18.836Z,11.10
2022-08-25T07:11:21.598Z,9.53
2022-08-25T07:16:29.005Z,10.47
2022-08-25T07:21:35.663Z,10.60
2022-08-25T07:26:42.162Z,11.27
2022-08-25T07:31:45.170Z,12.03
2022-08-25T07:36:48.691Z,10.03
2022-08-25T07:47:16.073Z,10.33
2022-08-25T07:52:18.615Z,8.97
2022-08-25T07:57:22.413Z,8.73
2022-08-25T08:02:25.278Z,8.57
2022-08-25T08:07:43.401Z,8.07
2022-08-25T08:12:47.186Z,8.47
2022-08-25T08:17:49.650Z,8.67
2022-08-25T08:22:53.118Z,9.17
2022-08-25T08:27:56.521Z,9.30
2022-08-25T08:33:09.742Z,10.20
2022-08-25T08:38:18.426Z,9.43
2022-08-25T08:43:24.979Z,9.93
2022-08-25T08:48:34.728Z,9.47
2022-08-25T08:53:46.306Z,10.73
2022-08-25T08:59:09.622Z,8.10
2022-08-25T09:04:26.428Z,7.90
2022-08-25T09:09:35.478Z,10.70
2022-08-25T09:14:54.735Z,18.40
2022-08-25T09:20:03.995Z,17.20
2022-08-25T09:25:12.242Z,9.43
2022-08-25T09:30:20.312Z,10.67
2022-08-25T09:35:29.801Z,10.30
2022-08-25T09:40:39.565Z,14.37
2022-08-25T09:46:03.445Z,11.27
2022-08-25T09:51:42.351Z,19.67
2022-08-25T09:57:02.122Z,13.63
2022-08-25T10:02:23.916Z,14.10
2022-08-25T10:07:51.866Z,21.27
2022-08-25T10:12:55.089Z,15.13
2022-08-25T10:18:28.421Z,21.93
2022-08-25T10:23:33.278Z,18.03
2022-08-25T10:28:49.999Z,14.73
2022-08-25T10:33:55.297Z,16.37
2022-08-25T10:39:01.718Z,15.57
2022-08-25T10:44:57.100Z,5.97
2022-08-25T10:50:14.570Z,13.83
2022-08-25T10:55:35.604Z,14.37
2022-08-25T11:01:03.649Z,10.80
2022-08-25T11:06:14.252Z,10.30
2022-08-25T11:11:26.116Z,9.50
2022-08-25T11:16:45.341Z,13.03
2022-08-25T11:22:07.429Z,8.20
2022-08-25T11:27:19.086Z,9.67
2022-08-25T11:32:25.348Z,10.38
2022-08-25T11:37:30.375Z,14.88
2022-08-25T11:43:00.648Z,13.00
2022-08-25T11:48:09.422Z,13.45
2022-08-25T11:53:11.798Z,16.52
2022-08-25T11:58:32.314Z,11.43
2022-08-25T12:03:34.677Z,15.00
2022-08-25T12:08:57.636Z,16.70
2022-08-25T12:14:17.438Z,12.77
2022-08-25T12:19:48.547Z,16.17
2022-08-25T12:25:03.420Z,12.13
2022-08-25T12:30:26.299Z,14.70
2022-08-25T12:35:30.243Z,15.90
2022-08-25T12:40:39.472Z,7.22
2022-08-25T12:45:45.490Z,7.45
2022-08-25T12:50:57.745Z,13.15
2022-08-25T12:56:22.149Z,13.15
2022-08-25T13:02:03.188Z,10.18
2022-08-25T13:07:24.830Z,10.60
2022-08-25T13:12:37.925Z,7.43
2022-08-25T13:17:40.430Z,10.13
2022-08-25T13:22:55.153Z,7.20
2022-08-25T13:28:06.622Z,9.57
2022-08-25T13:33:22.224Z,9.32
2022-08-25T13:38:27.201Z,8.40
2022-08-25T13:43:29.657Z,8.35
2022-08-25T13:48:35.440Z,7.53
2022-08-25T13:53:39.030Z,10.20
2022-08-25T13:58:45.663Z,7.22
2022-08-25T14:03:49.036Z,8.25
2022-08-25T14:09:01.132Z,7.32
2022-08-25T14:14:14.514Z,6.95
2022-08-25T14:19:23.272Z,7.22
2022-08-25T14:24:27.199Z,8.10
2022-08-25T14:29:30.200Z,9.60
2022-08-25T14:34:38.640Z,9.98
2022-08-25T14:39:42.174Z,9.38
2022-08-25T14:44:47.103Z,8.38
2022-08-25T14:49:50.073Z,8.68
2022-08-25T14:54:52.746Z,8.65
2022-08-25T14:59:55.286Z,7.97
2022-08-25T15:05:02.289Z,8.88
2022-08-25T15:10:05.478Z,7.50
2022-08-25T15:15:09.939Z,8.77
2022-08-25T15:20:15.973Z,6.97
2022-08-25T15:25:19.754Z,8.93
2022-08-25T15:30:22.356Z,8.98
2022-08-25T15:35:34.863Z,6.97
2022-08-25T15:40:39.076Z,6.40
2022-08-25T15:45:41.745Z,8.68
2022-08-25T15:50:44.195Z,9.15
2022-08-25T15:55:46.787Z,6.28
2022-08-25T16:00:56.092Z,6.90
2022-08-25T16:06:02.752Z,6.15
2022-08-25T16:11:06.287Z,7.78
2022-08-25T16:16:09.816Z,5.82
2022-08-25T16:21:15.060Z,6.75
2022-08-25T16:26:17.473Z,5.22
2022-08-25T16:31:20.750Z,6.07
2022-08-25T16:36:24.816Z,5.05
2022-08-25T16:41:34.101Z,5.75
2022-08-25T16:46:37.402Z,5.18
2022-08-25T16:51:40.842Z,5.25
2022-08-25T16:56:43.696Z,4.93
2022-08-25T17:01:46.168Z,5.95
2022-08-25T17:06:49.585Z,5.93
2022-08-25T17:11:56.941Z,5.15
2022-08-25T17:16:59.389Z,6.35
2022-08-25T17:22:01.861Z,7.72
2022-08-25T17:27:05.790Z,7.45
2022-08-25T17:32:10.003Z,7.45
2022-08-25T17:37:13.837Z,6.05
2022-08-25T17:42:16.806Z,7.65
2022-08-25T17:47:20.687Z,5.57
2022-08-25T17:52:25.662Z,5.40
2022-08-25T17:57:28.203Z,5.93
2022-08-25T18:02:30.767Z,6.23
2022-08-25T18:07:33.258Z,5.87
2022-08-25T18:12:37.307Z,6.00
2022-08-25T18:17:40.149Z,5.73
2022-08-25T18:22:44.082Z,6.63
2022-08-25T18:27:46.666Z,6.10
2022-08-25T18:32:50.394Z,5.70
2022-08-25T18:38:11.622Z,6.30
2022-08-25T18:43:15.285Z,6.00
2022-08-25T18:48:26.668Z,6.70
2022-08-25T18:53:37.558Z,6.83
2022-08-25T18:58:52.850Z,6.63
2022-08-25T19:03:55.395Z,6.23
2022-08-25T19:08:57.923Z,7.20
2022-08-25T19:14:00.667Z,7.07
2022-08-25T19:19:06.493Z,6.53
2022-08-25T19:24:11.147Z,6.97
2022-08-25T19:29:17.336Z,7.43
2022-08-25T19:34:28.259Z,9.77
2022-08-25T19:39:34.935Z,8.73
2022-08-25T19:44:37.535Z,8.60
2022-08-25T19:49:40.068Z,9.30
2022-08-25T19:54:45.894Z,7.90
2022-08-25T19:59:48.981Z,7.33
2022-08-25T20:04:54.447Z,6.97
2022-08-25T20:09:57.743Z,7.73
2022-08-25T20:15:00.585Z,7.70
2022-08-25T20:20:05.960Z,8.23
2022-08-25T20:25:15.192Z,8.77
2022-08-25T20:30:30.161Z,6.97
2022-08-25T20:35:32.708Z,7.27
2022-08-25T20:40:35.238Z,8.30
2022-08-25T20:45:39.761Z,7.83
2022-08-25T20:50:42.353Z,8.73
2022-08-25T20:55:44.886Z,10.70
2022-08-25T21:00:47.406Z,9.63
2022-08-25T21:05:54.162Z,9.13
2022-08-25T21:10:56.834Z,8.50
2022-08-25T21:16:02.168Z,7.83
2022-08-25T21:21:13.428Z,8.43
2022-08-25T21:26:19.521Z,8.30
2022-08-25T21:31:22.139Z,7.57
2022-08-25T21:36:26.422Z,8.63
2022-08-25T21:41:31.948Z,7.30
2022-08-25T21:46:35.792Z,7.50
2022-08-25T21:51:41.331Z,7.03
2022-08-25T21:56:48.634Z,7.00
2022-08-25T22:01:55.783Z,7.23
2022-08-25T22:06:59.116Z,6.97
2022-08-25T22:12:01.700Z,7.80
2022-08-25T22:17:06.019Z,7.13
2022-08-25T22:22:11.594Z,7.50
2022-08-25T22:27:15.875Z,8.00
2022-08-25T22:32:19.823Z,7.50
2022-08-25T22:37:22.374Z,7.13
2022-08-25T22:42:25.750Z,7.60
2022-08-25T22:47:28.268Z,7.50
2022-08-25T22:52:33.586Z,7.73
2022-08-25T22:57:36.639Z,8.20
2022-08-25T23:02:39.595Z,7.97
2022-08-25T23:07:42.056Z,8.40
2022-08-25T23:12:44.595Z,7.67
2022-08-25T23:17:47.136Z,8.70
2022-08-25T23:22:50.437Z,8.10
2022-08-25T23:27:56.076Z,8.67
2022-08-25T23:32:59.403Z,8.93
2022-08-25T23:38:01.802Z,9.20
2022-08-25T23:43:04.401Z,8.43
2022-08-25T23:48:08.165Z,9.23
2022-08-25T23:53:10.813Z,9.20
2022-08-25T23:58:14.238Z,9.07
